sensor_id;sensor_type;location;lat;lon;timestamp;pressure;altitude;pressure_sealevel;temperature;humidity
45621;BME280;31345;51.522;10.702;2023-06-26T00:00:47;99099.09;;;17.13;100.00
45621;BME280;31345;51.522;10.702;2023-06-26T00:03:19;99106.06;;;17.14;100.00
45621;BME280;31345;51.522;10.702;2023-06-26T00:05:52;99103.16;;;17.07;100.00
45621;BME280;31345;51.522;10.702;2023-06-26T00:08:26;99102.72;;;17.12;100.00
45621;BME280;31345;51.522;10.702;2023-06-26T00:10:58;99099.53;;;17.18;100.00
45621;BME280;31345;51.522;10.702;2023-06-26T00:13:31;99102.59;;;17.14;100.00
45621;BME280;31345;51.522;10.702;2023-06-26T00:16:03;99097.31;;;17.14;100.00
45621;BME280;31345;51.522;10.702;2023-06-26T00:18:36;99100.09;;;17.12;100.00
45621;BME280;31345;51.522;10.702;2023-06-26T00:21:08;99094.72;;;16.94;100.00
45621;BME280;31345;51.522;10.702;2023-06-26T00:23:42;99090.44;;;16.83;100.00
45621;BME280;31345;51.522;10.702;2023-06-26T00:26:15;99092.47;;;16.89;100.00
45621;BME280;31345;51.522;10.702;2023-06-26T00:28:47;99087.50;;;16.96;100.00
45621;BME280;31345;51.522;10.702;2023-06-26T00:31:20;99085.66;;;16.96;100.00
45621;BME280;31345;51.522;10.702;2023-06-26T00:33:47;99090.66;;;17.00;100.00
45621;BME280;31345;51.522;10.702;2023-06-26T00:36:21;99081.50;;;16.94;100.00
45621;BME280;31345;51.522;10.702;2023-06-26T00:38:55;99081.09;;;16.89;100.00
45621;BME280;31345;51.522;10.702;2023-06-26T00:41:22;99080.81;;;16.92;100.00
45621;BME280;31345;51.522;10.702;2023-06-26T00:43:55;99084.28;;;16.92;100.00
45621;BME280;31345;51.522;10.702;2023-06-26T00:46:28;99079.59;;;16.86;100.00
45621;BME280;31345;51.522;10.702;2023-06-26T00:49:02;99079.16;;;16.81;100.00
45621;BME280;31345;51.522;10.702;2023-06-26T00:51:35;99076.78;;;16.78;100.00
45621;BME280;31345;51.522;10.702;2023-06-26T00:54:09;99077.75;;;16.87;100.00
45621;BME280;31345;51.522;10.702;2023-06-26T00:56:42;99078.16;;;16.92;100.00
45621;BME280;31345;51.522;10.702;2023-06-26T00:59:14;99076.38;;;16.92;100.00
45621;BME280;31345;51.522;10.702;2023-06-26T01:01:47;99070.84;;;16.76;100.00
45621;BME280;31345;51.522;10.702;2023-06-26T01:04:19;99077.00;;;16.46;100.00
45621;BME280;31345;51.522;10.702;2023-06-26T01:06:48;99071.84;;;16.55;100.00
45621;BME280;31345;51.522;10.702;2023-06-26T01:09:23;99071.69;;;16.66;100.00
45621;BME280;31345;51.522;10.702;2023-06-26T01:11:55;99068.63;;;16.71;100.00
45621;BME280;31345;51.522;10.702;2023-06-26T01:14:28;99064.75;;;16.55;100.00
45621;BME280;31345;51.522;10.702;2023-06-26T01:17:01;99063.38;;;16.51;100.00
45621;BME280;31345;51.522;10.702;2023-06-26T01:19:34;99064.75;;;16.45;100.00
45621;BME280;31345;51.522;10.702;2023-06-26T01:22:09;99060.03;;;16.49;100.00
45621;BME280;31345;51.522;10.702;2023-06-26T01:24:56;99063.66;;;16.48;100.00
45621;BME280;31345;51.522;10.702;2023-06-26T01:27:35;99063.66;;;16.48;100.00
45621;BME280;31345;51.522;10.702;2023-06-26T01:30:05;99056.16;;;16.53;100.00
45621;BME280;31345;51.522;10.702;2023-06-26T01:32:40;99048.78;;;16.47;100.00
45621;BME280;31345;51.522;10.702;2023-06-26T01:35:14;99050.59;;;16.46;100.00
45621;BME280;31345;51.522;10.702;2023-06-26T01:37:47;99047.66;;;16.40;100.00
45621;BME280;31345;51.522;10.702;2023-06-26T01:40:20;99042.81;;;16.45;100.00
45621;BME280;31345;51.522;10.702;2023-06-26T01:42:54;99040.19;;;16.45;100.00
45621;BME280;31345;51.522;10.702;2023-06-26T01:45:29;99046.59;;;16.42;100.00
45621;BME280;31345;51.522;10.702;2023-06-26T01:48:06;99032.25;;;16.25;100.00
45621;BME280;31345;51.522;10.702;2023-06-26T01:50:38;99037.28;;;16.28;100.00
45621;BME280;31345;51.522;10.702;2023-06-26T01:53:13;99041.97;;;16.25;100.00
45621;BME280;31345;51.522;10.702;2023-06-26T01:55:51;99034.31;;;16.21;100.00
45621;BME280;31345;51.522;10.702;2023-06-26T01:58:27;99038.34;;;16.26;100.00
45621;BME280;31345;51.522;10.702;2023-06-26T02:01:00;99039.59;;;16.21;100.00
45621;BME280;31345;51.522;10.702;2023-06-26T02:03:33;99033.50;;;16.21;100.00
45621;BME280;31345;51.522;10.702;2023-06-26T02:06:00;99032.38;;;16.24;100.00
45621;BME280;31345;51.522;10.702;2023-06-26T02:08:32;99033.91;;;16.16;100.00
45621;BME280;31345;51.522;10.702;2023-06-26T02:11:05;99023.75;;;16.12;100.00
45621;BME280;31345;51.522;10.702;2023-06-26T02:13:39;99026.72;;;16.18;100.00
45621;BME280;31345;51.522;10.702;2023-06-26T02:16:11;99022.38;;;16.17;100.00
45621;BME280;31345;51.522;10.702;2023-06-26T02:18:42;99019.34;;;16.22;100.00
45621;BME280;31345;51.522;10.702;2023-06-26T02:21:10;99015.56;;;16.25;100.00
45621;BME280;31345;51.522;10.702;2023-06-26T02:23:38;99014.78;;;16.24;100.00
45621;BME280;31345;51.522;10.702;2023-06-26T02:26:10;99017.09;;;16.17;100.00
45621;BME280;31345;51.522;10.702;2023-06-26T02:28:39;99016.16;;;16.08;100.00
45621;BME280;31345;51.522;10.702;2023-06-26T02:31:12;99007.66;;;16.05;100.00
45621;BME280;31345;51.522;10.702;2023-06-26T02:33:44;99004.22;;;15.94;100.00
45621;BME280;31345;51.522;10.702;2023-06-26T02:36:12;99007.13;;;15.91;100.00
45621;BME280;31345;51.522;10.702;2023-06-26T02:38:45;99008.09;;;15.80;100.00
45621;BME280;31345;51.522;10.702;2023-06-26T02:41:13;99003.91;;;15.88;100.00
45621;BME280;31345;51.522;10.702;2023-06-26T02:43:47;99005.59;;;15.89;100.00
45621;BME280;31345;51.522;10.702;2023-06-26T02:46:15;99007.41;;;15.98;100.00
45621;BME280;31345;51.522;10.702;2023-06-26T02:48:47;98998.63;;;15.98;100.00
45621;BME280;31345;51.522;10.702;2023-06-26T02:51:20;99004.34;;;16.03;100.00
45621;BME280;31345;51.522;10.702;2023-06-26T02:53:53;99000.72;;;15.84;100.00
45621;BME280;31345;51.522;10.702;2023-06-26T02:56:26;98998.78;;;15.76;100.00
45621;BME280;31345;51.522;10.702;2023-06-26T02:59:01;99000.44;;;15.77;100.00
45621;BME280;31345;51.522;10.702;2023-06-26T03:01:34;99002.81;;;15.80;100.00
45621;BME280;31345;51.522;10.702;2023-06-26T03:04:07;98999.59;;;15.77;100.00
45621;BME280;31345;51.522;10.702;2023-06-26T03:06:41;98997.22;;;15.74;100.00
45621;BME280;31345;51.522;10.702;2023-06-26T03:09:13;98998.63;;;15.68;100.00
45621;BME280;31345;51.522;10.702;2023-06-26T03:11:47;98992.50;;;15.58;100.00
45621;BME280;31345;51.522;10.702;2023-06-26T03:14:21;98985.13;;;15.51;100.00
45621;BME280;31345;51.522;10.702;2023-06-26T03:16:54;98983.75;;;15.57;100.00
45621;BME280;31345;51.522;10.702;2023-06-26T03:19:30;98986.97;;;15.61;100.00
45621;BME280;31345;51.522;10.702;2023-06-26T03:22:28;98997.38;;;15.62;100.00
45621;BME280;31345;51.522;10.702;2023-06-26T03:25:01;98998.91;;;15.65;100.00
45621;BME280;31345;51.522;10.702;2023-06-26T03:27:35;99000.16;;;15.71;100.00
45621;BME280;31345;51.522;10.702;2023-06-26T03:30:11;98989.50;;;15.72;100.00
45621;BME280;31345;51.522;10.702;2023-06-26T03:32:46;98989.59;;;15.61;100.00
45621;BME280;31345;51.522;10.702;2023-06-26T03:35:19;98992.25;;;15.61;100.00
45621;BME280;31345;51.522;10.702;2023-06-26T03:37:52;98990.56;;;15.60;100.00
45621;BME280;31345;51.522;10.702;2023-06-26T03:40:20;98986.97;;;15.61;100.00
45621;BME280;31345;51.522;10.702;2023-06-26T03:42:52;98986.53;;;15.55;100.00
45621;BME280;31345;51.522;10.702;2023-06-26T03:45:26;98986.94;;;15.51;100.00
45621;BME280;31345;51.522;10.702;2023-06-26T03:48:00;98987.78;;;15.51;100.00
45621;BME280;31345;51.522;10.702;2023-06-26T03:50:27;98990.13;;;15.54;100.00
45621;BME280;31345;51.522;10.702;2023-06-26T03:52:54;98991.13;;;15.63;100.00
45621;BME280;31345;51.522;10.702;2023-06-26T03:55:27;98982.53;;;15.71;100.00
45621;BME280;31345;51.522;10.702;2023-06-26T03:58:00;98987.53;;;15.74;100.00
45621;BME280;31345;51.522;10.702;2023-06-26T04:00:33;98980.03;;;15.79;100.00
45621;BME280;31345;51.522;10.702;2023-06-26T04:03:06;98979.22;;;15.89;100.00
45621;BME280;31345;51.522;10.702;2023-06-26T04:05:38;98977.97;;;15.83;100.00
45621;BME280;31345;51.522;10.702;2023-06-26T04:08:11;98976.59;;;15.89;100.00
45621;BME280;31345;51.522;10.702;2023-06-26T04:10:39;98973.69;;;15.82;100.00
45621;BME280;31345;51.522;10.702;2023-06-26T04:13:11;98975.47;;;15.72;100.00
45621;BME280;31345;51.522;10.702;2023-06-26T04:15:46;98979.22;;;15.69;100.00
45621;BME280;31345;51.522;10.702;2023-06-26T04:18:19;98973.53;;;15.84;100.00
45621;BME280;31345;51.522;10.702;2023-06-26T04:21:06;98973.81;;;15.90;100.00
45621;BME280;31345;51.522;10.702;2023-06-26T04:23:40;98974.50;;;15.92;100.00
45621;BME280;31345;51.522;10.702;2023-06-26T04:26:07;98977.53;;;15.98;100.00
45621;BME280;31345;51.522;10.702;2023-06-26T04:28:44;98980.88;;;16.00;100.00
45621;BME280;31345;51.522;10.702;2023-06-26T04:31:18;98974.22;;;16.05;100.00
45621;BME280;31345;51.522;10.702;2023-06-26T04:33:50;98972.28;;;16.07;100.00
45621;BME280;31345;51.522;10.702;2023-06-26T04:36:25;98965.75;;;16.12;100.00
45621;BME280;31345;51.522;10.702;2023-06-26T04:38:54;98968.81;;;16.17;100.00
45621;BME280;31345;51.522;10.702;2023-06-26T04:41:27;98961.31;;;16.32;100.00
45621;BME280;31345;51.522;10.702;2023-06-26T04:43:59;98963.69;;;16.83;100.00
45621;BME280;31345;51.522;10.702;2023-06-26T04:46:33;98966.50;;;17.38;100.00
45621;BME280;31345;51.522;10.702;2023-06-26T04:49:06;98967.69;;;17.90;100.00
45621;BME280;31345;51.522;10.702;2023-06-26T04:51:38;98955.13;;;18.28;100.00
45621;BME280;31345;51.522;10.702;2023-06-26T04:54:11;98952.41;;;18.46;100.00
45621;BME280;31345;51.522;10.702;2023-06-26T04:56:44;98952.22;;;18.66;100.00
45621;BME280;31345;51.522;10.702;2023-06-26T04:59:18;98951.16;;;18.85;100.00
45621;BME280;31345;51.522;10.702;2023-06-26T05:01:52;98951.56;;;19.07;100.00
45621;BME280;31345;51.522;10.702;2023-06-26T05:04:24;98953.25;;;19.08;100.00
45621;BME280;31345;51.522;10.702;2023-06-26T05:06:57;98952.31;;;19.26;100.00
45621;BME280;31345;51.522;10.702;2023-06-26T05:09:29;98958.63;;;19.33;100.00
45621;BME280;31345;51.522;10.702;2023-06-26T05:12:02;98958.66;;;19.50;100.00
45621;BME280;31345;51.522;10.702;2023-06-26T05:14:35;98950.88;;;19.57;100.00
45621;BME280;31345;51.522;10.702;2023-06-26T05:17:09;98944.16;;;19.71;100.00
45621;BME280;31345;51.522;10.702;2023-06-26T05:19:41;98939.84;;;19.86;100.00
45621;BME280;31345;51.522;10.702;2023-06-26T05:22:14;98942.34;;;19.96;100.00
45621;BME280;31345;51.522;10.702;2023-06-26T05:24:49;98942.84;;;20.16;100.00
45621;BME280;31345;51.522;10.702;2023-06-26T05:27:25;98941.97;;;20.32;100.00
45621;BME280;31345;51.522;10.702;2023-06-26T05:29:58;98943.97;;;20.47;100.00
45621;BME280;31345;51.522;10.702;2023-06-26T05:32:28;98943.09;;;20.63;100.00
45621;BME280;31345;51.522;10.702;2023-06-26T05:35:02;98935.78;;;20.74;100.00
45621;BME280;31345;51.522;10.702;2023-06-26T05:37:31;98939.56;;;20.88;100.00
45621;BME280;31345;51.522;10.702;2023-06-26T05:39:59;98933.69;;;21.01;100.00
45621;BME280;31345;51.522;10.702;2023-06-26T05:42:33;98929.31;;;21.08;100.00
45621;BME280;31345;51.522;10.702;2023-06-26T05:45:06;98927.28;;;21.18;100.00
45621;BME280;31345;51.522;10.702;2023-06-26T05:47:41;98929.25;;;21.25;100.00
45621;BME280;31345;51.522;10.702;2023-06-26T05:50:14;98925.75;;;21.24;100.00
45621;BME280;31345;51.522;10.702;2023-06-26T05:52:47;98916.44;;;21.28;100.00
45621;BME280;31345;51.522;10.702;2023-06-26T05:55:15;98922.50;;;21.45;100.00
45621;BME280;31345;51.522;10.702;2023-06-26T05:57:49;98923.03;;;21.64;100.00
45621;BME280;31345;51.522;10.702;2023-06-26T06:00:24;98920.97;;;21.74;100.00
45621;BME280;31345;51.522;10.702;2023-06-26T06:02:59;98914.88;;;21.89;100.00
45621;BME280;31345;51.522;10.702;2023-06-26T06:05:31;98916.28;;;22.00;100.00
45621;BME280;31345;51.522;10.702;2023-06-26T06:08:04;98919.25;;;22.20;100.00
45621;BME280;31345;51.522;10.702;2023-06-26T06:10:36;98918.22;;;22.45;100.00
45621;BME280;31345;51.522;10.702;2023-06-26T06:13:09;98919.78;;;22.69;100.00
45621;BME280;31345;51.522;10.702;2023-06-26T06:15:41;98912.50;;;22.93;97.21
45621;BME280;31345;51.522;10.702;2023-06-26T06:18:15;98907.59;;;23.12;95.20
45621;BME280;31345;51.522;10.702;2023-06-26T06:20:48;98907.41;;;23.13;90.30
45621;BME280;31345;51.522;10.702;2023-06-26T06:23:20;98900.66;;;23.33;87.05
45621;BME280;31345;51.522;10.702;2023-06-26T06:25:54;98900.16;;;23.44;86.41
45621;BME280;31345;51.522;10.702;2023-06-26T06:28:27;98897.03;;;23.62;87.23
45621;BME280;31345;51.522;10.702;2023-06-26T06:30:59;98894.94;;;23.79;85.87
45621;BME280;31345;51.522;10.702;2023-06-26T06:33:33;98900.78;;;23.90;86.46
45621;BME280;31345;51.522;10.702;2023-06-26T06:36:05;98894.25;;;23.92;83.36
45621;BME280;31345;51.522;10.702;2023-06-26T06:38:38;98902.66;;;23.96;83.43
45621;BME280;31345;51.522;10.702;2023-06-26T06:41:10;98903.19;;;24.07;85.04
45621;BME280;31345;51.522;10.702;2023-06-26T06:43:43;98891.00;;;24.26;85.82
45621;BME280;31345;51.522;10.702;2023-06-26T06:46:16;98889.94;;;24.20;81.83
45621;BME280;31345;51.522;10.702;2023-06-26T06:48:50;98893.31;;;24.36;80.79
45621;BME280;31345;51.522;10.702;2023-06-26T06:51:22;98889.94;;;24.55;83.10
45621;BME280;31345;51.522;10.702;2023-06-26T06:53:55;98891.00;;;24.61;79.20
45621;BME280;31345;51.522;10.702;2023-06-26T06:56:27;98884.16;;;24.87;79.49
45621;BME280;31345;51.522;10.702;2023-06-26T06:59:00;98884.72;;;24.82;78.67
45621;BME280;31345;51.522;10.702;2023-06-26T07:01:32;98881.91;;;24.91;77.05
45621;BME280;31345;51.522;10.702;2023-06-26T07:04:06;98875.34;;;25.00;76.73
45621;BME280;31345;51.522;10.702;2023-06-26T07:06:39;98871.09;;;25.26;77.42
45621;BME280;31345;51.522;10.702;2023-06-26T07:09:11;98874.38;;;25.21;75.69
45621;BME280;31345;51.522;10.702;2023-06-26T07:11:39;98866.56;;;25.27;75.61
45621;BME280;31345;51.522;10.702;2023-06-26T07:14:11;98866.59;;;25.47;72.60
45621;BME280;31345;51.522;10.702;2023-06-26T07:16:39;98860.44;;;25.60;73.20
45621;BME280;31345;51.522;10.702;2023-06-26T07:19:12;98860.44;;;25.60;70.50
45621;BME280;31345;51.522;10.702;2023-06-26T07:21:45;98858.19;;;25.70;72.28
45621;BME280;31345;51.522;10.702;2023-06-26T07:24:18;98862.94;;;25.89;72.82
45621;BME280;31345;51.522;10.702;2023-06-26T07:26:50;98863.38;;;25.85;70.69
45621;BME280;31345;51.522;10.702;2023-06-26T07:29:23;98867.47;;;25.95;72.81
45621;BME280;31345;51.522;10.702;2023-06-26T07:31:57;98862.72;;;26.10;71.51
45621;BME280;31345;51.522;10.702;2023-06-26T07:34:30;98866.00;;;26.19;70.47
45621;BME280;31345;51.522;10.702;2023-06-26T07:37:03;98865.13;;;26.32;68.48
45621;BME280;31345;51.522;10.702;2023-06-26T07:39:36;98852.97;;;26.36;63.66
45621;BME280;31345;51.522;10.702;2023-06-26T07:42:08;98855.19;;;26.60;67.25
45621;BME280;31345;51.522;10.702;2023-06-26T07:44:41;98847.09;;;26.73;65.47
45621;BME280;31345;51.522;10.702;2023-06-26T07:47:14;98848.09;;;26.79;66.43
45621;BME280;31345;51.522;10.702;2023-06-26T07:49:48;98843.41;;;26.68;63.56
45621;BME280;31345;51.522;10.702;2023-06-26T07:52:21;98845.84;;;26.76;63.20
45621;BME280;31345;51.522;10.702;2023-06-26T07:54:48;98839.00;;;26.80;65.39
45621;BME280;31345;51.522;10.702;2023-06-26T07:57:20;98845.00;;;26.82;63.75
45621;BME280;31345;51.522;10.702;2023-06-26T07:59:53;98848.03;;;26.93;63.87
45621;BME280;31345;51.522;10.702;2023-06-26T08:02:26;98844.44;;;27.12;65.69
45621;BME280;31345;51.522;10.702;2023-06-26T08:05:00;98843.19;;;27.15;65.42
45621;BME280;31345;51.522;10.702;2023-06-26T08:07:33;98834.84;;;27.30;64.82
45621;BME280;31345;51.522;10.702;2023-06-26T08:10:06;98830.50;;;27.29;62.26
45621;BME280;31345;51.522;10.702;2023-06-26T08:12:38;98835.28;;;27.52;63.66
45621;BME280;31345;51.522;10.702;2023-06-26T08:15:13;98838.06;;;27.64;64.62
45621;BME280;31345;51.522;10.702;2023-06-26T08:17:46;98831.69;;;27.65;64.95
45621;BME280;31345;51.522;10.702;2023-06-26T08:20:20;98837.72;;;27.86;61.05
45621;BME280;31345;51.522;10.702;2023-06-26T08:22:53;98833.69;;;27.96;60.69
45621;BME280;31345;51.522;10.702;2023-06-26T08:25:26;98838.84;;;27.97;61.29
45621;BME280;31345;51.522;10.702;2023-06-26T08:27:58;98838.72;;;27.92;60.55
45621;BME280;31345;51.522;10.702;2023-06-26T08:30:32;98841.91;;;27.82;65.73
45621;BME280;31345;51.522;10.702;2023-06-26T08:33:04;98847.34;;;27.94;69.09
45621;BME280;31345;51.522;10.702;2023-06-26T08:35:43;98835.66;;;28.07;64.04
45621;BME280;31345;51.522;10.702;2023-06-26T08:38:15;98832.53;;;28.10;64.78
45621;BME280;31345;51.522;10.702;2023-06-26T08:40:48;98834.22;;;28.23;61.98
45621;BME280;31345;51.522;10.702;2023-06-26T08:43:20;98829.78;;;28.36;60.07
45621;BME280;31345;51.522;10.702;2023-06-26T08:45:53;98826.28;;;28.54;63.81
45621;BME280;31345;51.522;10.702;2023-06-26T08:48:25;98826.97;;;28.49;65.59
45621;BME280;31345;51.522;10.702;2023-06-26T08:51:01;98816.72;;;28.58;61.25
45621;BME280;31345;51.522;10.702;2023-06-26T08:53:42;98825.59;;;28.21;70.04
45621;BME280;31345;51.522;10.702;2023-06-26T08:56:17;98823.66;;;28.47;67.05
45621;BME280;31345;51.522;10.702;2023-06-26T08:58:52;98827.25;;;28.60;66.56
45621;BME280;31345;51.522;10.702;2023-06-26T09:01:25;98823.94;;;28.76;62.44
45621;BME280;31345;51.522;10.702;2023-06-26T09:03:58;98819.94;;;28.98;63.04
45621;BME280;31345;51.522;10.702;2023-06-26T09:06:32;98809.50;;;29.01;63.29
45621;BME280;31345;51.522;10.702;2023-06-26T09:09:04;98803.72;;;29.16;57.79
45621;BME280;31345;51.522;10.702;2023-06-26T09:11:37;98805.41;;;29.41;58.94
45621;BME280;31345;51.522;10.702;2023-06-26T09:14:09;98807.41;;;29.46;58.68
45621;BME280;31345;51.522;10.702;2023-06-26T09:16:42;98802.72;;;29.53;57.45
45621;BME280;31345;51.522;10.702;2023-06-26T09:19:15;98803.88;;;29.45;59.46
45621;BME280;31345;51.522;10.702;2023-06-26T09:21:50;98794.66;;;29.65;53.26
45621;BME280;31345;51.522;10.702;2023-06-26T09:24:23;98795.34;;;29.49;58.19
45621;BME280;31345;51.522;10.702;2023-06-26T09:26:55;98787.84;;;29.63;55.07
45621;BME280;31345;51.522;10.702;2023-06-26T09:29:28;98788.81;;;29.92;52.50
45621;BME280;31345;51.522;10.702;2023-06-26T09:32:01;98796.31;;;29.90;51.96
45621;BME280;31345;51.522;10.702;2023-06-26T09:34:34;98793.13;;;30.05;54.71
45621;BME280;31345;51.522;10.702;2023-06-26T09:37:08;98789.84;;;30.15;54.17
45621;BME280;31345;51.522;10.702;2023-06-26T09:39:40;98784.00;;;29.82;58.29
45621;BME280;31345;51.522;10.702;2023-06-26T09:42:13;98778.50;;;30.01;48.29
45621;BME280;31345;51.522;10.702;2023-06-26T09:44:46;98774.16;;;29.88;51.09
45621;BME280;31345;51.522;10.702;2023-06-26T09:47:19;98781.69;;;29.86;51.97
45621;BME280;31345;51.522;10.702;2023-06-26T09:49:52;98778.63;;;29.94;52.45
45621;BME280;31345;51.522;10.702;2023-06-26T09:52:27;98777.19;;;30.04;53.83
45621;BME280;31345;51.522;10.702;2023-06-26T09:55:07;98770.00;;;30.21;48.15
45621;BME280;31345;51.522;10.702;2023-06-26T09:57:40;98763.34;;;30.24;50.71
45621;BME280;31345;51.522;10.702;2023-06-26T10:00:14;98769.16;;;30.33;52.56
45621;BME280;31345;51.522;10.702;2023-06-26T10:02:47;98762.44;;;30.35;55.13
45621;BME280;31345;51.522;10.702;2023-06-26T10:05:20;98757.53;;;30.44;49.10
45621;BME280;31345;51.522;10.702;2023-06-26T10:07:49;98762.53;;;30.53;52.47
45621;BME280;31345;51.522;10.702;2023-06-26T10:10:23;98757.81;;;30.60;51.81
45621;BME280;31345;51.522;10.702;2023-06-26T10:12:59;98756.13;;;30.54;47.09
45621;BME280;31345;51.522;10.702;2023-06-26T10:15:33;98753.97;;;30.56;51.54
45621;BME280;31345;51.522;10.702;2023-06-26T10:18:07;98745.56;;;30.69;50.95
45621;BME280;31345;51.522;10.702;2023-06-26T10:20:40;98737.47;;;30.69;51.69
45621;BME280;31345;51.522;10.702;2023-06-26T10:23:16;98746.72;;;30.56;55.83
45621;BME280;31345;51.522;10.702;2023-06-26T10:25:55;98740.78;;;30.71;52.42
45621;BME280;31345;51.522;10.702;2023-06-26T10:28:30;98734.88;;;30.92;50.82
45621;BME280;31345;51.522;10.702;2023-06-26T10:31:05;98742.75;;;30.93;51.38
45621;BME280;31345;51.522;10.702;2023-06-26T10:33:39;98737.63;;;31.09;51.09
45621;BME280;31345;51.522;10.702;2023-06-26T10:36:13;98736.75;;;31.20;50.10
45621;BME280;31345;51.522;10.702;2023-06-26T10:38:51;98738.94;;;31.06;49.75
45621;BME280;31345;51.522;10.702;2023-06-26T10:41:25;98726.28;;;31.07;50.33
45621;BME280;31345;51.522;10.702;2023-06-26T10:44:09;98725.88;;;31.32;52.50
45621;BME280;31345;51.522;10.702;2023-06-26T10:46:49;98727.44;;;31.28;47.31
45621;BME280;31345;51.522;10.702;2023-06-26T10:49:25;98725.38;;;31.18;51.16
45621;BME280;31345;51.522;10.702;2023-06-26T10:52:01;98720.59;;;30.91;49.48
45621;BME280;31345;51.522;10.702;2023-06-26T10:54:37;98720.63;;;31.08;46.51
45621;BME280;31345;51.522;10.702;2023-06-26T10:57:10;98730.03;;;31.06;46.95
45621;BME280;31345;51.522;10.702;2023-06-26T10:59:42;98726.06;;;30.96;51.84
45621;BME280;31345;51.522;10.702;2023-06-26T11:02:15;98732.75;;;30.77;54.64
45621;BME280;31345;51.522;10.702;2023-06-26T11:04:50;98736.28;;;30.77;52.45
45621;BME280;31345;51.522;10.702;2023-06-26T11:07:25;98730.38;;;30.63;54.61
45621;BME280;31345;51.522;10.702;2023-06-26T11:09:58;98742.41;;;30.72;56.66
45621;BME280;31345;51.522;10.702;2023-06-26T11:12:37;98746.19;;;30.30;54.08
45621;BME280;31345;51.522;10.702;2023-06-26T11:15:10;98749.34;;;29.86;56.19
45621;BME280;31345;51.522;10.702;2023-06-26T11:17:44;98748.19;;;29.58;54.06
45621;BME280;31345;51.522;10.702;2023-06-26T11:20:17;98753.31;;;29.48;56.13
45621;BME280;31345;51.522;10.702;2023-06-26T11:22:52;98751.09;;;29.44;55.79
45621;BME280;31345;51.522;10.702;2023-06-26T11:25:26;98743.22;;;29.67;57.27
45621;BME280;31345;51.522;10.702;2023-06-26T11:27:59;98749.22;;;29.93;56.94
45621;BME280;31345;51.522;10.702;2023-06-26T11:30:31;98748.53;;;29.74;58.67
45621;BME280;31345;51.522;10.702;2023-06-26T11:33:05;98740.31;;;29.44;54.90
45621;BME280;31345;51.522;10.702;2023-06-26T11:35:37;98749.84;;;29.04;58.50
45621;BME280;31345;51.522;10.702;2023-06-26T11:38:10;98746.47;;;28.66;55.84
45621;BME280;31345;51.522;10.702;2023-06-26T11:40:44;98750.69;;;28.25;58.31
45621;BME280;31345;51.522;10.702;2023-06-26T11:43:16;98755.25;;;27.87;59.14
45621;BME280;31345;51.522;10.702;2023-06-26T11:45:49;98766.06;;;27.55;60.58
45621;BME280;31345;51.522;10.702;2023-06-26T11:48:22;98761.31;;;27.31;61.59
45621;BME280;31345;51.522;10.702;2023-06-26T11:50:54;98761.28;;;27.06;64.57
45621;BME280;31345;51.522;10.702;2023-06-26T11:53:27;98775.44;;;26.87;66.61
45621;BME280;31345;51.522;10.702;2023-06-26T11:56:07;98780.47;;;26.70;65.29
45621;BME280;31345;51.522;10.702;2023-06-26T11:58:56;98795.59;;;26.58;67.84
45621;BME280;31345;51.522;10.702;2023-06-26T12:01:31;98809.91;;;26.24;68.80
45621;BME280;31345;51.522;10.702;2023-06-26T12:04:05;98821.09;;;25.94;69.81
45621;BME280;31345;51.522;10.702;2023-06-26T12:06:39;98855.13;;;25.74;70.70
45621;BME280;31345;51.522;10.702;2023-06-26T12:09:13;98870.72;;;25.50;71.17
45621;BME280;31345;51.522;10.702;2023-06-26T12:11:49;98896.38;;;25.17;72.33
45621;BME280;31345;51.522;10.702;2023-06-26T12:14:24;98909.63;;;24.41;73.69
45621;BME280;31345;51.522;10.702;2023-06-26T12:17:04;98913.13;;;23.47;80.65
45621;BME280;31345;51.522;10.702;2023-06-26T12:19:37;98922.72;;;22.74;90.37
45621;BME280;31345;51.522;10.702;2023-06-26T12:22:10;98907.63;;;22.21;96.13
45621;BME280;31345;51.522;10.702;2023-06-26T12:24:43;98918.34;;;21.90;100.00
45621;BME280;31345;51.522;10.702;2023-06-26T12:27:18;98932.28;;;21.77;100.00
45621;BME280;31345;51.522;10.702;2023-06-26T12:29:52;98930.44;;;21.77;100.00
45621;BME280;31345;51.522;10.702;2023-06-26T12:32:25;98939.31;;;21.69;100.00
45621;BME280;31345;51.522;10.702;2023-06-26T12:34:53;98934.88;;;21.61;100.00
45621;BME280;31345;51.522;10.702;2023-06-26T12:37:25;98932.38;;;21.60;100.00
45621;BME280;31345;51.522;10.702;2023-06-26T12:39:54;98930.28;;;21.47;100.00
45621;BME280;31345;51.522;10.702;2023-06-26T12:42:28;98928.63;;;21.46;100.00
45621;BME280;31345;51.522;10.702;2023-06-26T12:45:10;98927.78;;;21.54;100.00
45621;BME280;31345;51.522;10.702;2023-06-26T12:47:38;98909.22;;;21.69;100.00
45621;BME280;31345;51.522;10.702;2023-06-26T12:50:08;98904.59;;;21.86;100.00
45621;BME280;31345;51.522;10.702;2023-06-26T12:52:40;98907.63;;;21.98;100.00
45621;BME280;31345;51.522;10.702;2023-06-26T12:55:08;98906.19;;;22.10;100.00
45621;BME280;31345;51.522;10.702;2023-06-26T12:57:37;98906.25;;;22.25;100.00
45621;BME280;31345;51.522;10.702;2023-06-26T13:00:11;98905.91;;;22.44;100.00
45621;BME280;31345;51.522;10.702;2023-06-26T13:02:44;98904.34;;;22.64;100.00
45621;BME280;31345;51.522;10.702;2023-06-26T13:05:16;98906.28;;;22.71;100.00
45621;BME280;31345;51.522;10.702;2023-06-26T13:07:49;98898.63;;;22.83;100.00
45621;BME280;31345;51.522;10.702;2023-06-26T13:10:22;98902.88;;;22.77;100.00
45621;BME280;31345;51.522;10.702;2023-06-26T13:12:50;98905.25;;;22.87;100.00
45621;BME280;31345;51.522;10.702;2023-06-26T13:15:18;98908.72;;;23.02;100.00